sensor_id;sensor_type;location;lat;lon;timestamp;P1;durP1;ratioP1;P2;durP2;ratioP2
2123;SDS011;1068;52.460;13.528;2022-10-16T00:02:15;5.80;;;5.37;;
2123;SDS011;1068;52.460;13.528;2022-10-16T00:04:42;5.15;;;3.95;;
2123;SDS011;1068;52.460;13.528;2022-10-16T00:07:09;5.97;;;5.10;;
2123;SDS011;1068;52.460;13.528;2022-10-16T00:09:36;5.05;;;4.68;;
2123;SDS011;1068;52.460;13.528;2022-10-16T00:12:04;5.37;;;4.97;;
2123;SDS011;1068;52.460;13.528;2022-10-16T00:14:32;3.80;;;3.60;;
2123;SDS011;1068;52.460;13.528;2022-10-16T00:16:58;4.00;;;3.70;;
2123;SDS011;1068;52.460;13.528;2022-10-16T00:19:25;4.53;;;4.23;;
2123;SDS011;1068;52.460;13.528;2022-10-16T00:21:52;5.93;;;3.83;;
2123;SDS011;1068;52.460;13.528;2022-10-16T00:24:19;4.20;;;3.80;;
2123;SDS011;1068;52.460;13.528;2022-10-16T00:26:46;4.70;;;4.37;;
2123;SDS011;1068;52.460;13.528;2022-10-16T00:29:17;4.43;;;3.77;;
2123;SDS011;1068;52.460;13.528;2022-10-16T00:31:44;9.03;;;3.77;;
2123;SDS011;1068;52.460;13.528;2022-10-16T00:34:11;3.33;;;3.13;;
2123;SDS011;1068;52.460;13.528;2022-10-16T00:36:37;3.80;;;3.50;;
2123;SDS011;1068;52.460;13.528;2022-10-16T00:39:04;4.07;;;3.77;;
2123;SDS011;1068;52.460;13.528;2022-10-16T00:41:32;3.43;;;3.13;;
2123;SDS011;1068;52.460;13.528;2022-10-16T00:44:00;4.30;;;4.00;;
2123;SDS011;1068;52.460;13.528;2022-10-16T00:46:29;3.37;;;3.07;;
2123;SDS011;1068;52.460;13.528;2022-10-16T00:48:59;3.53;;;3.33;;
2123;SDS011;1068;52.460;13.528;2022-10-16T00:51:33;4.15;;;3.10;;
2123;SDS011;1068;52.460;13.528;2022-10-16T00:54:01;2.80;;;2.60;;
2123;SDS011;1068;52.460;13.528;2022-10-16T00:56:28;3.50;;;3.30;;
2123;SDS011;1068;52.460;13.528;2022-10-16T00:58:55;4.77;;;2.90;;
2123;SDS011;1068;52.460;13.528;2022-10-16T01:01:22;2.90;;;2.65;;
2123;SDS011;1068;52.460;13.528;2022-10-16T01:03:50;2.90;;;2.70;;
2123;SDS011;1068;52.460;13.528;2022-10-16T01:06:19;2.57;;;2.37;;
2123;SDS011;1068;52.460;13.528;2022-10-16T01:08:52;2.77;;;2.57;;
2123;SDS011;1068;52.460;13.528;2022-10-16T01:11:22;5.00;;;2.83;;
2123;SDS011;1068;52.460;13.528;2022-10-16T01:13:53;2.70;;;2.50;;
2123;SDS011;1068;52.460;13.528;2022-10-16T01:16:22;2.10;;;2.00;;
2123;SDS011;1068;52.460;13.528;2022-10-16T01:18:54;2.50;;;2.30;;
2123;SDS011;1068;52.460;13.528;2022-10-16T01:21:24;2.60;;;2.40;;
2123;SDS011;1068;52.460;13.528;2022-10-16T01:23:56;4.27;;;2.87;;
2123;SDS011;1068;52.460;13.528;2022-10-16T01:26:33;2.83;;;2.63;;
2123;SDS011;1068;52.460;13.528;2022-10-16T01:29:05;2.60;;;2.40;;
2123;SDS011;1068;52.460;13.528;2022-10-16T01:31:34;2.53;;;2.10;;
2123;SDS011;1068;52.460;13.528;2022-10-16T01:34:03;2.30;;;2.20;;
2123;SDS011;1068;52.460;13.528;2022-10-16T01:36:34;2.73;;;2.53;;
2123;SDS011;1068;52.460;13.528;2022-10-16T01:39:02;2.47;;;2.23;;
2123;SDS011;1068;52.460;13.528;2022-10-16T01:41:30;2.03;;;1.90;;
2123;SDS011;1068;52.460;13.528;2022-10-16T01:43:59;2.47;;;2.37;;
2123;SDS011;1068;52.460;13.528;2022-10-16T01:46:30;2.27;;;2.17;;
2123;SDS011;1068;52.460;13.528;2022-10-16T01:48:57;2.13;;;2.03;;
2123;SDS011;1068;52.460;13.528;2022-10-16T01:51:25;3.20;;;2.20;;
2123;SDS011;1068;52.460;13.528;2022-10-16T01:53:53;2.73;;;2.53;;
2123;SDS011;1068;52.460;13.528;2022-10-16T01:56:21;2.10;;;2.00;;
2123;SDS011;1068;52.460;13.528;2022-10-16T01:58:49;2.27;;;2.10;;
2123;SDS011;1068;52.460;13.528;2022-10-16T02:01:18;3.23;;;2.63;;
2123;SDS011;1068;52.460;13.528;2022-10-16T02:03:48;2.43;;;2.20;;
2123;SDS011;1068;52.460;13.528;2022-10-16T02:06:16;4.20;;;2.10;;
2123;SDS011;1068;52.460;13.528;2022-10-16T02:08:43;2.28;;;2.17;;
2123;SDS011;1068;52.460;13.528;2022-10-16T02:11:10;2.17;;;1.97;;
2123;SDS011;1068;52.460;13.528;2022-10-16T02:13:38;2.17;;;1.97;;
2123;SDS011;1068;52.460;13.528;2022-10-16T02:16:07;2.50;;;2.40;;
2123;SDS011;1068;52.460;13.528;2022-10-16T02:18:34;3.00;;;2.80;;
2123;SDS011;1068;52.460;13.528;2022-10-16T02:21:04;2.13;;;2.03;;
2123;SDS011;1068;52.460;13.528;2022-10-16T02:23:35;2.20;;;2.10;;
2123;SDS011;1068;52.460;13.528;2022-10-16T02:26:04;2.27;;;2.07;;
2123;SDS011;1068;52.460;13.528;2022-10-16T02:28:34;2.07;;;1.87;;
2123;SDS011;1068;52.460;13.528;2022-10-16T02:31:04;2.40;;;2.20;;
2123;SDS011;1068;52.460;13.528;2022-10-16T02:33:33;2.03;;;1.93;;
2123;SDS011;1068;52.460;13.528;2022-10-16T02:36:04;2.37;;;2.20;;
2123;SDS011;1068;52.460;13.528;2022-10-16T02:38:31;1.80;;;1.70;;
2123;SDS011;1068;52.460;13.528;2022-10-16T02:40:59;2.23;;;1.83;;
2123;SDS011;1068;52.460;13.528;2022-10-16T02:43:25;1.90;;;1.80;;
2123;SDS011;1068;52.460;13.528;2022-10-16T02:45:52;2.07;;;1.90;;
2123;SDS011;1068;52.460;13.528;2022-10-16T02:48:19;2.10;;;1.90;;
2123;SDS011;1068;52.460;13.528;2022-10-16T02:50:46;1.70;;;1.60;;
2123;SDS011;1068;52.460;13.528;2022-10-16T02:53:14;3.53;;;1.70;;
2123;SDS011;1068;52.460;13.528;2022-10-16T02:55:41;1.83;;;1.73;;
2123;SDS011;1068;52.460;13.528;2022-10-16T02:58:08;2.40;;;2.27;;
2123;SDS011;1068;52.460;13.528;2022-10-16T03:00:35;2.10;;;2.00;;
2123;SDS011;1068;52.460;13.528;2022-10-16T03:03:02;1.95;;;1.85;;
2123;SDS011;1068;52.460;13.528;2022-10-16T03:05:29;2.10;;;2.00;;
2123;SDS011;1068;52.460;13.528;2022-10-16T03:07:56;1.75;;;1.50;;
2123;SDS011;1068;52.460;13.528;2022-10-16T03:10:26;2.13;;;2.03;;
2123;SDS011;1068;52.460;13.528;2022-10-16T03:12:53;2.50;;;1.70;;
2123;SDS011;1068;52.460;13.528;2022-10-16T03:15:20;1.67;;;1.57;;
2123;SDS011;1068;52.460;13.528;2022-10-16T03:17:47;1.50;;;1.40;;
2123;SDS011;1068;52.460;13.528;2022-10-16T03:20:14;1.70;;;1.60;;
2123;SDS011;1068;52.460;13.528;2022-10-16T03:22:41;1.70;;;1.60;;
2123;SDS011;1068;52.460;13.528;2022-10-16T03:25:08;2.00;;;1.90;;
2123;SDS011;1068;52.460;13.528;2022-10-16T03:27:36;1.53;;;1.43;;
2123;SDS011;1068;52.460;13.528;2022-10-16T03:30:03;1.93;;;1.83;;
2123;SDS011;1068;52.460;13.528;2022-10-16T03:32:30;1.83;;;1.50;;
2123;SDS011;1068;52.460;13.528;2022-10-16T03:34:57;1.60;;;1.50;;
2123;SDS011;1068;52.460;13.528;2022-10-16T03:37:24;1.80;;;1.70;;
2123;SDS011;1068;52.460;13.528;2022-10-16T03:39:51;2.17;;;1.70;;
2123;SDS011;1068;52.460;13.528;2022-10-16T03:42:18;2.60;;;1.70;;
2123;SDS011;1068;52.460;13.528;2022-10-16T03:44:46;2.00;;;1.90;;
2123;SDS011;1068;52.460;13.528;2022-10-16T03:47:13;3.47;;;1.80;;
2123;SDS011;1068;52.460;13.528;2022-10-16T03:49:40;1.40;;;1.30;;
2123;SDS011;1068;52.460;13.528;2022-10-16T03:52:07;5.17;;;2.03;;
2123;SDS011;1068;52.460;13.528;2022-10-16T03:54:33;1.73;;;1.53;;
2123;SDS011;1068;52.460;13.528;2022-10-16T03:57:00;1.43;;;1.33;;
2123;SDS011;1068;52.460;13.528;2022-10-16T03:59:27;1.73;;;1.63;;
2123;SDS011;1068;52.460;13.528;2022-10-16T04:01:55;1.63;;;1.53;;
2123;SDS011;1068;52.460;13.528;2022-10-16T04:04:22;5.80;;;1.73;;
2123;SDS011;1068;52.460;13.528;2022-10-16T04:06:50;2.63;;;2.43;;
2123;SDS011;1068;52.460;13.528;2022-10-16T04:09:17;2.00;;;1.90;;
2123;SDS011;1068;52.460;13.528;2022-10-16T04:11:44;1.80;;;1.70;;
2123;SDS011;1068;52.460;13.528;2022-10-16T04:14:10;2.03;;;1.93;;
2123;SDS011;1068;52.460;13.528;2022-10-16T04:16:37;1.70;;;1.60;;
2123;SDS011;1068;52.460;13.528;2022-10-16T04:19:06;1.73;;;1.63;;
2123;SDS011;1068;52.460;13.528;2022-10-16T04:21:32;1.83;;;1.47;;
2123;SDS011;1068;52.460;13.528;2022-10-16T04:23:59;1.80;;;1.70;;
2123;SDS011;1068;52.460;13.528;2022-10-16T04:26:26;1.80;;;1.70;;
2123;SDS011;1068;52.460;13.528;2022-10-16T04:28:53;1.90;;;1.80;;
2123;SDS011;1068;52.460;13.528;2022-10-16T04:31:20;1.70;;;1.60;;
2123;SDS011;1068;52.460;13.528;2022-10-16T04:33:47;1.60;;;1.50;;
2123;SDS011;1068;52.460;13.528;2022-10-16T04:36:15;1.50;;;1.40;;
2123;SDS011;1068;52.460;13.528;2022-10-16T04:38:42;1.60;;;1.50;;
2123;SDS011;1068;52.460;13.528;2022-10-16T04:41:09;1.67;;;1.57;;
2123;SDS011;1068;52.460;13.528;2022-10-16T04:43:36;1.40;;;1.30;;
2123;SDS011;1068;52.460;13.528;2022-10-16T04:46:03;2.00;;;1.77;;
2123;SDS011;1068;52.460;13.528;2022-10-16T04:48:30;1.90;;;1.80;;
2123;SDS011;1068;52.460;13.528;2022-10-16T04:50:57;1.43;;;1.33;;
2123;SDS011;1068;52.460;13.528;2022-10-16T04:53:25;1.60;;;1.50;;
2123;SDS011;1068;52.460;13.528;2022-10-16T04:55:52;1.70;;;1.60;;
2123;SDS011;1068;52.460;13.528;2022-10-16T04:58:19;1.83;;;1.67;;
2123;SDS011;1068;52.460;13.528;2022-10-16T05:00:46;2.37;;;1.87;;
2123;SDS011;1068;52.460;13.528;2022-10-16T05:03:13;1.70;;;1.60;;
2123;SDS011;1068;52.460;13.528;2022-10-16T05:05:42;2.13;;;1.60;;
2123;SDS011;1068;52.460;13.528;2022-10-16T05:08:09;1.53;;;1.43;;
2123;SDS011;1068;52.460;13.528;2022-10-16T05:10:37;2.37;;;1.80;;
2123;SDS011;1068;52.460;13.528;2022-10-16T05:13:04;1.70;;;1.60;;
2123;SDS011;1068;52.460;13.528;2022-10-16T05:15:31;1.73;;;1.53;;
2123;SDS011;1068;52.460;13.528;2022-10-16T05:17:58;1.73;;;1.63;;
2123;SDS011;1068;52.460;13.528;2022-10-16T05:20:25;3.77;;;1.57;;
2123;SDS011;1068;52.460;13.528;2022-10-16T05:22:52;2.57;;;1.53;;
2123;SDS011;1068;52.460;13.528;2022-10-16T05:25:19;1.80;;;1.70;;
2123;SDS011;1068;52.460;13.528;2022-10-16T05:27:48;1.50;;;1.40;;
2123;SDS011;1068;52.460;13.528;2022-10-16T05:30:15;1.90;;;1.80;;
2123;SDS011;1068;52.460;13.528;2022-10-16T05:32:45;2.13;;;1.80;;
2123;SDS011;1068;52.460;13.528;2022-10-16T05:35:12;1.80;;;1.70;;
2123;SDS011;1068;52.460;13.528;2022-10-16T05:37:39;4.27;;;1.50;;
2123;SDS011;1068;52.460;13.528;2022-10-16T05:40:07;1.93;;;1.83;;
2123;SDS011;1068;52.460;13.528;2022-10-16T05:42:34;1.67;;;1.57;;
2123;SDS011;1068;52.460;13.528;2022-10-16T05:45:03;1.80;;;1.70;;
2123;SDS011;1068;52.460;13.528;2022-10-16T05:47:30;1.67;;;1.50;;
2123;SDS011;1068;52.460;13.528;2022-10-16T05:49:57;2.03;;;1.83;;
2123;SDS011;1068;52.460;13.528;2022-10-16T05:52:24;3.08;;;1.60;;
2123;SDS011;1068;52.460;13.528;2022-10-16T05:54:51;1.57;;;1.47;;
2123;SDS011;1068;52.460;13.528;2022-10-16T05:57:18;1.70;;;1.60;;
2123;SDS011;1068;52.460;13.528;2022-10-16T05:59:45;4.20;;;1.87;;
2123;SDS011;1068;52.460;13.528;2022-10-16T06:02:14;2.23;;;1.70;;
2123;SDS011;1068;52.460;13.528;2022-10-16T06:04:41;2.03;;;1.40;;
2123;SDS011;1068;52.460;13.528;2022-10-16T06:07:08;1.70;;;1.60;;
2123;SDS011;1068;52.460;13.528;2022-10-16T06:09:34;1.87;;;1.60;;
2123;SDS011;1068;52.460;13.528;2022-10-16T06:12:02;1.63;;;1.53;;
2123;SDS011;1068;52.460;13.528;2022-10-16T06:14:28;1.47;;;1.37;;
2123;SDS011;1068;52.460;13.528;2022-10-16T06:16:55;1.67;;;1.57;;
2123;SDS011;1068;52.460;13.528;2022-10-16T06:19:24;1.70;;;1.60;;
2123;SDS011;1068;52.460;13.528;2022-10-16T06:21:50;2.20;;;2.03;;
2123;SDS011;1068;52.460;13.528;2022-10-16T06:24:17;2.13;;;2.00;;
2123;SDS011;1068;52.460;13.528;2022-10-16T06:26:44;2.50;;;2.30;;
2123;SDS011;1068;52.460;13.528;2022-10-16T06:29:11;2.30;;;2.20;;
2123;SDS011;1068;52.460;13.528;2022-10-16T06:31:38;2.30;;;2.10;;
2123;SDS011;1068;52.460;13.528;2022-10-16T06:34:05;2.28;;;2.17;;
2123;SDS011;1068;52.460;13.528;2022-10-16T06:36:35;2.67;;;2.57;;
2123;SDS011;1068;52.460;13.528;2022-10-16T06:39:02;2.50;;;2.30;;
2123;SDS011;1068;52.460;13.528;2022-10-16T06:41:29;2.20;;;2.10;;
2123;SDS011;1068;52.460;13.528;2022-10-16T06:43:56;2.60;;;2.40;;
2123;SDS011;1068;52.460;13.528;2022-10-16T06:46:23;2.57;;;2.47;;
2123;SDS011;1068;52.460;13.528;2022-10-16T06:48:51;2.80;;;2.60;;
2123;SDS011;1068;52.460;13.528;2022-10-16T06:51:18;2.03;;;1.93;;
2123;SDS011;1068;52.460;13.528;2022-10-16T06:53:47;2.27;;;2.07;;
2123;SDS011;1068;52.460;13.528;2022-10-16T06:56:15;1.90;;;1.80;;
2123;SDS011;1068;52.460;13.528;2022-10-16T06:58:42;2.75;;;1.80;;
2123;SDS011;1068;52.460;13.528;2022-10-16T07:01:10;1.70;;;1.60;;
2123;SDS011;1068;52.460;13.528;2022-10-16T07:03:37;2.00;;;1.90;;
2123;SDS011;1068;52.460;13.528;2022-10-16T07:06:05;2.90;;;2.80;;
2123;SDS011;1068;52.460;13.528;2022-10-16T07:08:32;2.83;;;2.63;;
2123;SDS011;1068;52.460;13.528;2022-10-16T07:11:01;3.17;;;2.00;;
2123;SDS011;1068;52.460;13.528;2022-10-16T07:13:28;1.80;;;1.70;;
2123;SDS011;1068;52.460;13.528;2022-10-16T07:15:55;2.47;;;1.77;;
2123;SDS011;1068;52.460;13.528;2022-10-16T07:18:22;3.13;;;2.00;;
2123;SDS011;1068;52.460;13.528;2022-10-16T07:20:51;5.23;;;2.10;;
2123;SDS011;1068;52.460;13.528;2022-10-16T07:23:18;1.97;;;1.60;;
2123;SDS011;1068;52.460;13.528;2022-10-16T07:25:45;2.20;;;1.50;;
2123;SDS011;1068;52.460;13.528;2022-10-16T07:28:13;1.60;;;1.50;;
2123;SDS011;1068;52.460;13.528;2022-10-16T07:30:40;1.60;;;1.43;;
2123;SDS011;1068;52.460;13.528;2022-10-16T07:33:07;3.80;;;1.97;;
2123;SDS011;1068;52.460;13.528;2022-10-16T07:35:34;4.60;;;1.67;;
2123;SDS011;1068;52.460;13.528;2022-10-16T07:38:01;1.93;;;1.50;;
2123;SDS011;1068;52.460;13.528;2022-10-16T07:40:28;1.33;;;1.23;;
2123;SDS011;1068;52.460;13.528;2022-10-16T07:42:55;1.70;;;1.43;;
2123;SDS011;1068;52.460;13.528;2022-10-16T07:45:23;1.90;;;1.80;;
2123;SDS011;1068;52.460;13.528;2022-10-16T07:47:50;1.67;;;1.55;;
2123;SDS011;1068;52.460;13.528;2022-10-16T07:50:17;1.73;;;1.43;;
2123;SDS011;1068;52.460;13.528;2022-10-16T07:52:44;1.53;;;1.33;;
2123;SDS011;1068;52.460;13.528;2022-10-16T07:55:11;1.40;;;1.30;;
2123;SDS011;1068;52.460;13.528;2022-10-16T07:57:38;4.50;;;1.53;;
2123;SDS011;1068;52.460;13.528;2022-10-16T08:00:05;1.67;;;1.57;;
2123;SDS011;1068;52.460;13.528;2022-10-16T08:02:33;1.57;;;1.47;;
2123;SDS011;1068;52.460;13.528;2022-10-16T08:05:00;1.63;;;1.53;;
2123;SDS011;1068;52.460;13.528;2022-10-16T08:07:27;1.93;;;1.70;;
2123;SDS011;1068;52.460;13.528;2022-10-16T08:09:54;2.90;;;1.90;;
2123;SDS011;1068;52.460;13.528;2022-10-16T08:12:23;1.87;;;1.77;;
2123;SDS011;1068;52.460;13.528;2022-10-16T08:14:50;2.20;;;2.10;;
2123;SDS011;1068;52.460;13.528;2022-10-16T08:17:17;2.00;;;1.33;;
2123;SDS011;1068;52.460;13.528;2022-10-16T08:19:45;3.10;;;1.55;;
2123;SDS011;1068;52.460;13.528;2022-10-16T08:22:12;1.97;;;1.77;;
2123;SDS011;1068;52.460;13.528;2022-10-16T08:24:39;2.37;;;1.60;;
2123;SDS011;1068;52.460;13.528;2022-10-16T08:27:07;1.83;;;1.73;;
2123;SDS011;1068;52.460;13.528;2022-10-16T08:29:35;2.30;;;1.97;;
2123;SDS011;1068;52.460;13.528;2022-10-16T08:32:03;1.40;;;1.30;;
2123;SDS011;1068;52.460;13.528;2022-10-16T08:34:30;2.93;;;1.60;;
2123;SDS011;1068;52.460;13.528;2022-10-16T08:36:58;2.07;;;1.97;;
2123;SDS011;1068;52.460;13.528;2022-10-16T08:39:25;3.50;;;1.80;;
2123;SDS011;1068;52.460;13.528;2022-10-16T08:42:05;1.57;;;1.47;;
2123;SDS011;1068;52.460;13.528;2022-10-16T08:44:41;1.30;;;1.20;;
2123;SDS011;1068;52.460;13.528;2022-10-16T08:47:13;2.13;;;1.33;;
2123;SDS011;1068;52.460;13.528;2022-10-16T08:49:55;2.13;;;1.30;;
2123;SDS011;1068;52.460;13.528;2022-10-16T08:52:24;3.30;;;1.57;;
2123;SDS011;1068;52.460;13.528;2022-10-16T08:54:53;5.77;;;1.63;;
2123;SDS011;1068;52.460;13.528;2022-10-16T08:57:21;2.17;;;1.10;;
2123;SDS011;1068;52.460;13.528;2022-10-16T08:59:48;1.30;;;1.20;;
2123;SDS011;1068;52.460;13.528;2022-10-16T09:02:21;1.20;;;1.10;;
2123;SDS011;1068;52.460;13.528;2022-10-16T09:04:53;2.30;;;1.00;;
2123;SDS011;1068;52.460;13.528;2022-10-16T09:07:25;1.10;;;1.00;;
2123;SDS011;1068;52.460;13.528;2022-10-16T09:10:01;1.10;;;1.00;;
2123;SDS011;1068;52.460;13.528;2022-10-16T09:12:31;1.55;;;1.10;;
2123;SDS011;1068;52.460;13.528;2022-10-16T09:15:01;1.20;;;1.10;;
2123;SDS011;1068;52.460;13.528;2022-10-16T09:17:32;3.83;;;1.20;;
2123;SDS011;1068;52.460;13.528;2022-10-16T09:20:03;1.73;;;1.10;;
2123;SDS011;1068;52.460;13.528;2022-10-16T09:22:34;1.90;;;1.10;;
2123;SDS011;1068;52.460;13.528;2022-10-16T09:25:05;0.90;;;0.90;;
2123;SDS011;1068;52.460;13.528;2022-10-16T09:27:37;1.35;;;0.93;;
2123;SDS011;1068;52.460;13.528;2022-10-16T09:30:10;1.13;;;1.00;;
2123;SDS011;1068;52.460;13.528;2022-10-16T09:32:37;0.90;;;0.90;;
2123;SDS011;1068;52.460;13.528;2022-10-16T09:35:09;1.00;;;0.70;;
2123;SDS011;1068;52.460;13.528;2022-10-16T09:37:39;1.00;;;0.90;;
2123;SDS011;1068;52.460;13.528;2022-10-16T09:40:11;1.10;;;1.00;;
2123;SDS011;1068;52.460;13.528;2022-10-16T09:42:39;2.60;;;1.13;;
2123;SDS011;1068;52.460;13.528;2022-10-16T09:45:18;1.63;;;1.10;;
2123;SDS011;1068;52.460;13.528;2022-10-16T09:47:46;1.10;;;1.00;;
2123;SDS011;1068;52.460;13.528;2022-10-16T09:50:20;1.10;;;1.00;;
2123;SDS011;1068;52.460;13.528;2022-10-16T09:52:49;1.00;;;1.00;;
2123;SDS011;1068;52.460;13.528;2022-10-16T09:55:17;2.80;;;1.00;;
2123;SDS011;1068;52.460;13.528;2022-10-16T09:57:50;1.20;;;1.10;;
2123;SDS011;1068;52.460;13.528;2022-10-16T10:00:17;3.00;;;1.20;;
2123;SDS011;1068;52.460;13.528;2022-10-16T10:02:45;1.53;;;1.10;;
2123;SDS011;1068;52.460;13.528;2022-10-16T10:05:22;1.10;;;1.00;;
2123;SDS011;1068;52.460;13.528;2022-10-16T10:07:55;1.63;;;1.03;;
2123;SDS011;1068;52.460;13.528;2022-10-16T10:10:24;1.53;;;1.17;;
2123;SDS011;1068;52.460;13.528;2022-10-16T10:12:51;0.90;;;0.90;;
2123;SDS011;1068;52.460;13.528;2022-10-16T10:15:18;3.57;;;1.20;;
2123;SDS011;1068;52.460;13.528;2022-10-16T10:17:47;1.10;;;1.00;;
2123;SDS011;1068;52.460;13.528;2022-10-16T10:20:18;1.83;;;1.20;;
2123;SDS011;1068;52.460;13.528;2022-10-16T10:22:47;3.90;;;2.00;;
2123;SDS011;1068;52.460;13.528;2022-10-16T10:25:28;0.90;;;0.90;;
2123;SDS011;1068;52.460;13.528;2022-10-16T10:30:42;1.97;;;1.00;;
2123;SDS011;1068;52.460;13.528;2022-10-16T10:33:16;3.27;;;1.13;;
2123;SDS011;1068;52.460;13.528;2022-10-16T10:35:47;2.80;;;1.03;;
2123;SDS011;1068;52.460;13.528;2022-10-16T10:38:27;1.38;;;1.27;;
2123;SDS011;1068;52.460;13.528;2022-10-16T10:40:59;1.30;;;0.90;;
2123;SDS011;1068;52.460;13.528;2022-10-16T10:43:31;0.90;;;0.90;;
2123;SDS011;1068;52.460;13.528;2022-10-16T10:46:02;1.63;;;1.53;;
2123;SDS011;1068;52.460;13.528;2022-10-16T10:48:38;0.80;;;0.80;;
2123;SDS011;1068;52.460;13.528;2022-10-16T10:51:10;1.43;;;1.00;;
2123;SDS011;1068;52.460;13.528;2022-10-16T10:53:41;2.10;;;0.90;;
2123;SDS011;1068;52.460;13.528;2022-10-16T10:56:16;1.27;;;1.17;;
2123;SDS011;1068;52.460;13.528;2022-10-16T10:58:58;0.90;;;0.90;;
2123;SDS011;1068;52.460;13.528;2022-10-16T11:01:30;1.60;;;0.90;;
2123;SDS011;1068;52.460;13.528;2022-10-16T11:04:05;2.40;;;0.80;;
2123;SDS011;1068;52.460;13.528;2022-10-16T11:06:34;5.72;;;1.00;;
2123;SDS011;1068;52.460;13.528;2022-10-16T11:09:07;1.37;;;1.10;;
2123;SDS011;1068;52.460;13.528;2022-10-16T11:11:40;1.13;;;0.80;;
2123;SDS011;1068;52.460;13.528;2022-10-16T11:14:11;1.13;;;0.80;;
2123;SDS011;1068;52.460;13.528;2022-10-16T11:16:42;0.83;;;0.83;;
2123;SDS011;1068;52.460;13.528;2022-10-16T11:19:11;1.20;;;1.10;;
2123;SDS011;1068;52.460;13.528;2022-10-16T11:21:39;3.43;;;0.90;;
2123;SDS011;1068;52.460;13.528;2022-10-16T11:24:10;2.00;;;1.00;;
2123;SDS011;1068;52.460;13.528;2022-10-16T11:26:42;0.80;;;0.80;;
2123;SDS011;1068;52.460;13.528;2022-10-16T11:29:11;1.77;;;0.80;;
2123;SDS011;1068;52.460;13.528;2022-10-16T11:31:41;1.20;;;0.87;;
2123;SDS011;1068;52.460;13.528;2022-10-16T11:34:11;4.60;;;1.80;;
2123;SDS011;1068;52.460;13.528;2022-10-16T11:36:42;1.10;;;1.00;;
2123;SDS011;1068;52.460;13.528;2022-10-16T11:39:14;1.00;;;0.90;;
2123;SDS011;1068;52.460;13.528;2022-10-16T11:41:47;0.93;;;0.77;;
2123;SDS011;1068;52.460;13.528;2022-10-16T11:44:23;1.50;;;1.40;;
2123;SDS011;1068;52.460;13.528;2022-10-16T11:46:57;0.83;;;0.70;;
2123;SDS011;1068;52.460;13.528;2022-10-16T11:49:25;2.13;;;0.80;;
2123;SDS011;1068;52.460;13.528;2022-10-16T11:51:55;2.73;;;1.13;;
2123;SDS011;1068;52.460;13.528;2022-10-16T11:54:27;2.10;;;0.80;;
2123;SDS011;1068;52.460;13.528;2022-10-16T11:56:58;0.80;;;0.70;;
2123;SDS011;1068;52.460;13.528;2022-10-16T11:59:27;0.73;;;0.73;;
2123;SDS011;1068;52.460;13.528;2022-10-16T12:02:15;1.80;;;0.80;;
2123;SDS011;1068;52.460;13.528;2022-10-16T12:04:45;1.13;;;0.90;;
2123;SDS011;1068;52.460;13.528;2022-10-16T12:07:16;1.00;;;0.90;;
2123;SDS011;1068;52.460;13.528;2022-10-16T12:09:45;0.80;;;0.70;;
2123;SDS011;1068;52.460;13.528;2022-10-16T12:12:24;2.20;;;0.75;;
2123;SDS011;1068;52.460;13.528;2022-10-16T12:14:59;1.07;;;0.90;;
2123;SDS011;1068;52.460;13.528;2022-10-16T12:17:27;0.70;;;0.70;;
2123;SDS011;1068;52.460;13.528;2022-10-16T12:20:14;0.90;;;0.80;;
2123;SDS011;1068;52.460;13.528;2022-10-16T12:22:47;1.63;;;0.70;;
2123;SDS011;1068;52.460;13.528;2022-10-16T12:25:19;0.80;;;0.80;;
2123;SDS011;1068;52.460;13.528;2022-10-16T12:27:52;9.50;;;0.90;;
2123;SDS011;1068;52.460;13.528;2022-10-16T12:30:20;1.20;;;0.80;;
2123;SDS011;1068;52.460;13.528;2022-10-16T12:32:53;1.10;;;0.73;;
2123;SDS011;1068;52.460;13.528;2022-10-16T12:35:22;0.80;;;0.73;;
2123;SDS011;1068;52.460;13.528;2022-10-16T12:37:49;0.70;;;0.70;;
2123;SDS011;1068;52.460;13.528;2022-10-16T12:40:23;0.87;;;0.60;;
2123;SDS011;1068;52.460;13.528;2022-10-16T12:42:52;1.20;;;0.73;;
2123;SDS011;1068;52.460;13.528;2022-10-16T12:45:23;1.17;;;0.90;;
2123;SDS011;1068;52.460;13.528;2022-10-16T12:47:52;2.93;;;0.60;;
2123;SDS011;1068;52.460;13.528;2022-10-16T12:50:31;0.90;;;0.70;;
2123;SDS011;1068;52.460;13.528;2022-10-16T12:52:58;0.60;;;0.50;;
2123;SDS011;1068;52.460;13.528;2022-10-16T12:55:26;0.77;;;0.73;;
2123;SDS011;1068;52.460;13.528;2022-10-16T13:00:37;1.47;;;0.73;;
2123;SDS011;1068;52.460;13.528;2022-10-16T13:03:17;0.80;;;0.70;;
2123;SDS011;1068;52.460;13.528;2022-10-16T13:05:52;1.57;;;0.70;;
2123;SDS011;1068;52.460;13.528;2022-10-16T13:08:29;0.90;;;0.90;;
2123;SDS011;1068;52.460;13.528;2022-10-16T13:11:02;1.00;;;0.60;;
2123;SDS011;1068;52.460;13.528;2022-10-16T13:13:40;1.10;;;0.60;;
2123;SDS011;1068;52.460;13.528;2022-10-16T13:16:13;1.37;;;0.70;;
2123;SDS011;1068;52.460;13.528;2022-10-16T13:18:48;1.00;;;0.83;;
2123;SDS011;1068;52.460;13.528;2022-10-16T13:21:22;1.77;;;0.80;;
2123;SDS011;1068;52.460;13.528;2022-10-16T13:23:51;5.67;;;0.77;;
2123;SDS011;1068;52.460;13.528;2022-10-16T13:26:24;1.47;;;1.37;;
2123;SDS011;1068;52.460;13.528;2022-10-16T13:28:53;1.80;;;0.97;;
2123;SDS011;1068;52.460;13.528;2022-10-16T13:31:20;1.30;;;1.20;;
2123;SDS011;1068;52.460;13.528;2022-10-16T13:33:50;2.70;;;2.60;;
2123;SDS011;1068;52.460;13.528;2022-10-16T13:36:21;2.30;;;2.00;;
2123;SDS011;1068;52.460;13.528;2022-10-16T13:38:49;0.80;;;0.80;;
2123;SDS011;1068;52.460;13.528;2022-10-16T13:41:25;2.73;;;0.70;;
2123;SDS011;1068;52.460;13.528;2022-10-16T13:43:52;0.70;;;0.70;;
2123;SDS011;1068;52.460;13.528;2022-10-16T13:46:22;1.55;;;0.80;;
2123;SDS011;1068;52.460;13.528;2022-10-16T13:48:56;2.20;;;0.70;;
2123;SDS011;1068;52.460;13.528;2022-10-16T13:51:24;1.90;;;0.85;;
2123;SDS011;1068;52.460;13.528;2022-10-16T13:53:51;1.00;;;0.80;;
2123;SDS011;1068;52.460;13.528;2022-10-16T13:56:19;1.83;;;0.70;;
2123;SDS011;1068;52.460;13.528;2022-10-16T13:58:46;1.47;;;0.70;;
2123;SDS011;1068;52.460;13.528;2022-10-16T14:01:24;1.10;;;0.70;;
2123;SDS011;1068;52.460;13.528;2022-10-16T14:03:52;0.80;;;0.70;;
2123;SDS011;1068;52.460;13.528;2022-10-16T14:06:20;0.73;;;0.70;;
2123;SDS011;1068;52.460;13.528;2022-10-16T14:08:50;0.90;;;0.70;;
2123;SDS011;1068;52.460;13.528;2022-10-16T14:11:20;2.90;;;0.90;;
2123;SDS011;1068;52.460;13.528;2022-10-16T14:13:48;0.70;;;0.60;;
2123;SDS011;1068;52.460;13.528;2022-10-16T14:16:16;0.90;;;0.70;;
2123;SDS011;1068;52.460;13.528;2022-10-16T14:18:45;1.08;;;0.85;;
2123;SDS011;1068;52.460;13.528;2022-10-16T14:21:13;1.23;;;0.70;;
2123;SDS011;1068;52.460;13.528;2022-10-16T14:23:42;2.53;;;0.80;;
2123;SDS011;1068;52.460;13.528;2022-10-16T14:26:14;1.00;;;0.83;;
2123;SDS011;1068;52.460;13.528;2022-10-16T14:28:41;2.50;;;0.80;;
2123;SDS011;1068;52.460;13.528;2022-10-16T14:31:26;0.70;;;0.70;;
2123;SDS011;1068;52.460;13.528;2022-10-16T14:33:53;0.80;;;0.80;;
2123;SDS011;1068;52.460;13.528;2022-10-16T14:36:20;1.07;;;0.87;;
2123;SDS011;1068;52.460;13.528;2022-10-16T14:38:49;0.70;;;0.70;;
2123;SDS011;1068;52.460;13.528;2022-10-16T14:41:19;1.23;;;0.90;;
2123;SDS011;1068;52.460;13.528;2022-10-16T14:43:49;1.30;;;1.03;;
2123;SDS011;1068;52.460;13.528;2022-10-16T14:46:17;1.73;;;1.20;;
2123;SDS011;1068;52.460;13.528;2022-10-16T14:48:45;1.30;;;1.20;;
2123;SDS011;1068;52.460;13.528;2022-10-16T14:51:13;1.20;;;1.10;;
2123;SDS011;1068;52.460;13.528;2022-10-16T14:53:40;1.30;;;1.00;;
2123;SDS011;1068;52.460;13.528;2022-10-16T14:56:07;4.20;;;1.43;;
2123;SDS011;1068;52.460;13.528;2022-10-16T14:58:36;1.63;;;1.00;;
2123;SDS011;1068;52.460;13.528;2022-10-16T15:01:03;0.90;;;0.80;;
2123;SDS011;1068;52.460;13.528;2022-10-16T15:03:31;0.97;;;0.70;;
2123;SDS011;1068;52.460;13.528;2022-10-16T15:05:58;2.85;;;0.90;;
2123;SDS011;1068;52.460;13.528;2022-10-16T15:08:25;2.03;;;0.90;;
2123;SDS011;1068;52.460;13.528;2022-10-16T15:10:52;1.00;;;0.90;;
2123;SDS011;1068;52.460;13.528;2022-10-16T15:13:19;1.00;;;0.90;;
2123;SDS011;1068;52.460;13.528;2022-10-16T15:15:47;1.13;;;0.97;;
2123;SDS011;1068;52.460;13.528;2022-10-16T15:18:14;2.67;;;0.90;;